sensor_id;sensor_type;location;lat;lon;timestamp;P1;durP1;ratioP1;P2;durP2;ratioP2
42244;SDS011;27912;51.828;5.688;2022-07-23T00:00:02;4.93;;;1.38;;
42244;SDS011;27912;51.828;5.688;2022-07-23T00:02:29;3.33;;;1.17;;
42244;SDS011;27912;51.828;5.688;2022-07-23T00:04:54;3.75;;;1.15;;
42244;SDS011;27912;51.828;5.688;2022-07-23T00:07:20;4.70;;;1.88;;
42244;SDS011;27912;51.828;5.688;2022-07-23T00:09:45;4.32;;;1.33;;
42244;SDS011;27912;51.828;5.688;2022-07-23T00:12:11;3.30;;;1.40;;
42244;SDS011;27912;51.828;5.688;2022-07-23T00:14:36;3.28;;;1.50;;
42244;SDS011;27912;51.828;5.688;2022-07-23T00:17:02;3.78;;;1.63;;
42244;SDS011;27912;51.828;5.688;2022-07-23T00:19:27;4.40;;;1.60;;
42244;SDS011;27912;51.828;5.688;2022-07-23T00:21:54;3.95;;;1.85;;
42244;SDS011;27912;51.828;5.688;2022-07-23T00:24:19;5.72;;;1.38;;
42244;SDS011;27912;51.828;5.688;2022-07-23T00:26:45;3.40;;;1.63;;
42244;SDS011;27912;51.828;5.688;2022-07-23T00:29:11;3.78;;;1.92;;
42244;SDS011;27912;51.828;5.688;2022-07-23T00:31:37;4.55;;;1.98;;
42244;SDS011;27912;51.828;5.688;2022-07-23T00:34:03;4.32;;;1.80;;
42244;SDS011;27912;51.828;5.688;2022-07-23T00:36:28;3.38;;;1.42;;
42244;SDS011;27912;51.828;5.688;2022-07-23T00:38:56;2.30;;;1.58;;
42244;SDS011;27912;51.828;5.688;2022-07-23T00:41:22;5.70;;;2.13;;
42244;SDS011;27912;51.828;5.688;2022-07-23T00:43:48;3.97;;;1.65;;
42244;SDS011;27912;51.828;5.688;2022-07-23T00:46:18;4.47;;;1.65;;
42244;SDS011;27912;51.828;5.688;2022-07-23T00:48:45;5.35;;;2.20;;
42244;SDS011;27912;51.828;5.688;2022-07-23T00:51:10;6.85;;;1.77;;
42244;SDS011;27912;51.828;5.688;2022-07-23T00:53:36;6.28;;;2.20;;
42244;SDS011;27912;51.828;5.688;2022-07-23T00:56:02;3.42;;;1.60;;
42244;SDS011;27912;51.828;5.688;2022-07-23T00:58:27;2.92;;;2.00;;
42244;SDS011;27912;51.828;5.688;2022-07-23T01:00:53;3.85;;;1.95;;
42244;SDS011;27912;51.828;5.688;2022-07-23T01:03:18;7.15;;;2.13;;
42244;SDS011;27912;51.828;5.688;2022-07-23T01:05:44;5.18;;;1.42;;
42244;SDS011;27912;51.828;5.688;2022-07-23T01:08:10;4.95;;;2.40;;
42244;SDS011;27912;51.828;5.688;2022-07-23T01:10:36;3.00;;;2.08;;
42244;SDS011;27912;51.828;5.688;2022-07-23T01:15:29;5.35;;;2.00;;
42244;SDS011;27912;51.828;5.688;2022-07-23T01:17:55;3.58;;;2.30;;
42244;SDS011;27912;51.828;5.688;2022-07-23T01:20:21;5.32;;;2.22;;
42244;SDS011;27912;51.828;5.688;2022-07-23T01:22:47;5.13;;;2.35;;
42244;SDS011;27912;51.828;5.688;2022-07-23T01:25:13;6.10;;;2.70;;
42244;SDS011;27912;51.828;5.688;2022-07-23T01:27:39;4.47;;;2.22;;
42244;SDS011;27912;51.828;5.688;2022-07-23T01:30:05;6.80;;;3.03;;
42244;SDS011;27912;51.828;5.688;2022-07-23T01:32:31;5.32;;;2.53;;
42244;SDS011;27912;51.828;5.688;2022-07-23T01:34:57;6.13;;;2.80;;
42244;SDS011;27912;51.828;5.688;2022-07-23T01:37:23;7.13;;;2.22;;
42244;SDS011;27912;51.828;5.688;2022-07-23T01:39:48;4.85;;;2.78;;
42244;SDS011;27912;51.828;5.688;2022-07-23T01:42:14;3.85;;;2.17;;
42244;SDS011;27912;51.828;5.688;2022-07-23T01:44:39;4.82;;;2.58;;
42244;SDS011;27912;51.828;5.688;2022-07-23T01:47:05;4.47;;;2.47;;
42244;SDS011;27912;51.828;5.688;2022-07-23T01:49:30;3.45;;;2.45;;
42244;SDS011;27912;51.828;5.688;2022-07-23T01:51:56;5.03;;;3.28;;
42244;SDS011;27912;51.828;5.688;2022-07-23T01:54:25;6.82;;;3.00;;
42244;SDS011;27912;51.828;5.688;2022-07-23T01:56:52;5.05;;;3.10;;
42244;SDS011;27912;51.828;5.688;2022-07-23T01:59:17;7.80;;;3.08;;
42244;SDS011;27912;51.828;5.688;2022-07-23T02:01:43;3.53;;;3.05;;
42244;SDS011;27912;51.828;5.688;2022-07-23T02:04:08;5.03;;;2.92;;
42244;SDS011;27912;51.828;5.688;2022-07-23T02:06:34;5.25;;;3.13;;
42244;SDS011;27912;51.828;5.688;2022-07-23T02:08:59;6.20;;;3.15;;
42244;SDS011;27912;51.828;5.688;2022-07-23T02:11:25;7.28;;;3.05;;
42244;SDS011;27912;51.828;5.688;2022-07-23T02:13:50;6.40;;;3.58;;
42244;SDS011;27912;51.828;5.688;2022-07-23T02:16:16;5.85;;;3.40;;
42244;SDS011;27912;51.828;5.688;2022-07-23T02:18:41;5.93;;;3.17;;
42244;SDS011;27912;51.828;5.688;2022-07-23T02:21:07;4.13;;;2.95;;
42244;SDS011;27912;51.828;5.688;2022-07-23T02:23:32;8.38;;;3.65;;
42244;SDS011;27912;51.828;5.688;2022-07-23T02:25:58;7.03;;;3.08;;
42244;SDS011;27912;51.828;5.688;2022-07-23T02:28:23;7.88;;;2.92;;
42244;SDS011;27912;51.828;5.688;2022-07-23T02:30:50;5.95;;;3.50;;
42244;SDS011;27912;51.828;5.688;2022-07-23T02:33:15;5.25;;;3.90;;
42244;SDS011;27912;51.828;5.688;2022-07-23T02:35:41;5.40;;;3.45;;
42244;SDS011;27912;51.828;5.688;2022-07-23T02:38:06;6.15;;;3.17;;
42244;SDS011;27912;51.828;5.688;2022-07-23T02:40:32;4.68;;;3.38;;
42244;SDS011;27912;51.828;5.688;2022-07-23T02:42:57;4.97;;;3.17;;
42244;SDS011;27912;51.828;5.688;2022-07-23T02:45:23;6.63;;;3.60;;
42244;SDS011;27912;51.828;5.688;2022-07-23T02:47:49;6.00;;;3.30;;
42244;SDS011;27912;51.828;5.688;2022-07-23T02:50:14;5.10;;;3.78;;
42244;SDS011;27912;51.828;5.688;2022-07-23T02:52:40;4.53;;;3.22;;
42244;SDS011;27912;51.828;5.688;2022-07-23T02:55:06;7.30;;;3.67;;
42244;SDS011;27912;51.828;5.688;2022-07-23T02:57:31;5.97;;;4.20;;
42244;SDS011;27912;51.828;5.688;2022-07-23T02:59:57;6.05;;;3.90;;
42244;SDS011;27912;51.828;5.688;2022-07-23T03:02:23;6.88;;;3.88;;
42244;SDS011;27912;51.828;5.688;2022-07-23T03:04:49;5.38;;;3.88;;
42244;SDS011;27912;51.828;5.688;2022-07-23T03:07:16;7.05;;;3.97;;
42244;SDS011;27912;51.828;5.688;2022-07-23T03:09:42;6.38;;;3.35;;
42244;SDS011;27912;51.828;5.688;2022-07-23T03:12:08;6.63;;;3.80;;
42244;SDS011;27912;51.828;5.688;2022-07-23T03:14:34;5.22;;;3.42;;
42244;SDS011;27912;51.828;5.688;2022-07-23T03:16:59;4.75;;;3.35;;
42244;SDS011;27912;51.828;5.688;2022-07-23T03:19:25;7.50;;;4.05;;
42244;SDS011;27912;51.828;5.688;2022-07-23T03:21:51;4.95;;;4.10;;
42244;SDS011;27912;51.828;5.688;2022-07-23T03:24:16;6.47;;;4.15;;
42244;SDS011;27912;51.828;5.688;2022-07-23T03:26:45;6.13;;;3.72;;
42244;SDS011;27912;51.828;5.688;2022-07-23T03:29:10;5.32;;;4.05;;
42244;SDS011;27912;51.828;5.688;2022-07-23T03:31:36;5.35;;;3.33;;
42244;SDS011;27912;51.828;5.688;2022-07-23T03:34:02;5.25;;;3.50;;
42244;SDS011;27912;51.828;5.688;2022-07-23T03:36:27;5.60;;;3.08;;
42244;SDS011;27912;51.828;5.688;2022-07-23T03:38:53;5.60;;;2.72;;
42244;SDS011;27912;51.828;5.688;2022-07-23T03:41:19;5.88;;;2.95;;
42244;SDS011;27912;51.828;5.688;2022-07-23T03:43:45;7.95;;;4.28;;
42244;SDS011;27912;51.828;5.688;2022-07-23T03:46:11;4.65;;;3.45;;
42244;SDS011;27912;51.828;5.688;2022-07-23T03:48:39;7.65;;;3.85;;
42244;SDS011;27912;51.828;5.688;2022-07-23T03:51:04;6.95;;;3.60;;
42244;SDS011;27912;51.828;5.688;2022-07-23T03:53:30;7.05;;;4.20;;
42244;SDS011;27912;51.828;5.688;2022-07-23T03:55:56;7.63;;;3.88;;
42244;SDS011;27912;51.828;5.688;2022-07-23T03:58:21;6.22;;;4.28;;
42244;SDS011;27912;51.828;5.688;2022-07-23T04:00:47;7.85;;;4.65;;
42244;SDS011;27912;51.828;5.688;2022-07-23T04:03:13;6.57;;;4.22;;
42244;SDS011;27912;51.828;5.688;2022-07-23T04:05:38;6.07;;;3.70;;
42244;SDS011;27912;51.828;5.688;2022-07-23T04:08:04;6.35;;;4.07;;
42244;SDS011;27912;51.828;5.688;2022-07-23T04:10:29;5.55;;;4.35;;
42244;SDS011;27912;51.828;5.688;2022-07-23T04:12:55;9.73;;;4.13;;
42244;SDS011;27912;51.828;5.688;2022-07-23T04:15:20;8.38;;;4.35;;
42244;SDS011;27912;51.828;5.688;2022-07-23T04:17:46;8.10;;;4.57;;
42244;SDS011;27912;51.828;5.688;2022-07-23T04:20:12;9.15;;;4.80;;
42244;SDS011;27912;51.828;5.688;2022-07-23T04:22:38;8.23;;;5.05;;
42244;SDS011;27912;51.828;5.688;2022-07-23T04:25:03;8.95;;;4.15;;
42244;SDS011;27912;51.828;5.688;2022-07-23T04:27:29;8.40;;;4.68;;
42244;SDS011;27912;51.828;5.688;2022-07-23T04:29:58;5.65;;;4.03;;
42244;SDS011;27912;51.828;5.688;2022-07-23T04:32:23;7.60;;;4.88;;
42244;SDS011;27912;51.828;5.688;2022-07-23T04:34:49;7.03;;;4.70;;
42244;SDS011;27912;51.828;5.688;2022-07-23T04:37:15;6.30;;;4.00;;
42244;SDS011;27912;51.828;5.688;2022-07-23T04:39:40;9.00;;;3.90;;
42244;SDS011;27912;51.828;5.688;2022-07-23T04:42:06;8.65;;;4.63;;
42244;SDS011;27912;51.828;5.688;2022-07-23T04:44:31;8.38;;;4.30;;
42244;SDS011;27912;51.828;5.688;2022-07-23T04:46:57;7.40;;;3.95;;
42244;SDS011;27912;51.828;5.688;2022-07-23T04:49:22;9.15;;;4.47;;
42244;SDS011;27912;51.828;5.688;2022-07-23T04:51:48;9.25;;;4.45;;
42244;SDS011;27912;51.828;5.688;2022-07-23T04:54:13;7.90;;;4.28;;
42244;SDS011;27912;51.828;5.688;2022-07-23T04:56:39;8.55;;;4.00;;
42244;SDS011;27912;51.828;5.688;2022-07-23T04:59:04;7.50;;;4.00;;
42244;SDS011;27912;51.828;5.688;2022-07-23T05:01:30;9.07;;;4.10;;
42244;SDS011;27912;51.828;5.688;2022-07-23T05:03:55;6.72;;;4.03;;
42244;SDS011;27912;51.828;5.688;2022-07-23T05:06:21;7.22;;;4.85;;
42244;SDS011;27912;51.828;5.688;2022-07-23T05:08:46;8.98;;;4.07;;
42244;SDS011;27912;51.828;5.688;2022-07-23T05:11:12;7.30;;;4.32;;
42244;SDS011;27912;51.828;5.688;2022-07-23T05:13:38;15.32;;;4.82;;
42244;SDS011;27912;51.828;5.688;2022-07-23T05:16:03;6.22;;;4.78;;
42244;SDS011;27912;51.828;5.688;2022-07-23T05:18:30;5.53;;;4.63;;
42244;SDS011;27912;51.828;5.688;2022-07-23T05:20:55;7.82;;;4.90;;
42244;SDS011;27912;51.828;5.688;2022-07-23T05:23:21;7.78;;;4.90;;
42244;SDS011;27912;51.828;5.688;2022-07-23T05:25:46;8.52;;;3.97;;
42244;SDS011;27912;51.828;5.688;2022-07-23T05:28:12;8.10;;;3.72;;
42244;SDS011;27912;51.828;5.688;2022-07-23T05:30:38;6.47;;;3.10;;
42244;SDS011;27912;51.828;5.688;2022-07-23T05:33:03;5.90;;;2.58;;
42244;SDS011;27912;51.828;5.688;2022-07-23T05:35:29;4.35;;;2.92;;
42244;SDS011;27912;51.828;5.688;2022-07-23T05:37:54;5.15;;;2.13;;
42244;SDS011;27912;51.828;5.688;2022-07-23T05:40:20;4.75;;;1.70;;
42244;SDS011;27912;51.828;5.688;2022-07-23T05:42:45;7.32;;;2.47;;
42244;SDS011;27912;51.828;5.688;2022-07-23T05:45:11;2.63;;;1.80;;
42244;SDS011;27912;51.828;5.688;2022-07-23T05:47:54;2.75;;;1.98;;
42244;SDS011;27912;51.828;5.688;2022-07-23T05:50:20;8.02;;;2.60;;
42244;SDS011;27912;51.828;5.688;2022-07-23T05:52:45;4.28;;;1.67;;
42244;SDS011;27912;51.828;5.688;2022-07-23T05:55:12;5.03;;;2.70;;
42244;SDS011;27912;51.828;5.688;2022-07-23T05:57:38;6.30;;;2.42;;
42244;SDS011;27912;51.828;5.688;2022-07-23T06:00:04;3.95;;;2.45;;
42244;SDS011;27912;51.828;5.688;2022-07-23T06:02:31;4.28;;;3.03;;
42244;SDS011;27912;51.828;5.688;2022-07-23T06:04:56;6.97;;;2.70;;
42244;SDS011;27912;51.828;5.688;2022-07-23T06:07:22;8.15;;;3.00;;
42244;SDS011;27912;51.828;5.688;2022-07-23T06:09:47;4.68;;;2.58;;
42244;SDS011;27912;51.828;5.688;2022-07-23T06:12:14;5.80;;;2.70;;
42244;SDS011;27912;51.828;5.688;2022-07-23T06:14:43;4.45;;;2.70;;
42244;SDS011;27912;51.828;5.688;2022-07-23T06:17:08;7.18;;;3.28;;
42244;SDS011;27912;51.828;5.688;2022-07-23T06:19:34;8.52;;;3.95;;
42244;SDS011;27912;51.828;5.688;2022-07-23T06:21:59;6.63;;;3.22;;
42244;SDS011;27912;51.828;5.688;2022-07-23T06:24:25;8.32;;;4.10;;
42244;SDS011;27912;51.828;5.688;2022-07-23T06:26:50;5.88;;;3.65;;
42244;SDS011;27912;51.828;5.688;2022-07-23T06:29:16;4.15;;;3.42;;
42244;SDS011;27912;51.828;5.688;2022-07-23T06:31:41;5.45;;;3.25;;
42244;SDS011;27912;51.828;5.688;2022-07-23T06:34:07;5.20;;;3.20;;
42244;SDS011;27912;51.828;5.688;2022-07-23T06:36:33;8.50;;;3.42;;
42244;SDS011;27912;51.828;5.688;2022-07-23T06:38:58;8.38;;;3.08;;
42244;SDS011;27912;51.828;5.688;2022-07-23T06:41:24;6.75;;;2.88;;
42244;SDS011;27912;51.828;5.688;2022-07-23T06:43:49;5.35;;;2.58;;
42244;SDS011;27912;51.828;5.688;2022-07-23T06:46:15;5.22;;;2.75;;
42244;SDS011;27912;51.828;5.688;2022-07-23T06:48:40;5.68;;;2.50;;
42244;SDS011;27912;51.828;5.688;2022-07-23T06:51:06;5.40;;;2.85;;
42244;SDS011;27912;51.828;5.688;2022-07-23T06:53:31;4.97;;;2.08;;
42244;SDS011;27912;51.828;5.688;2022-07-23T06:55:57;3.70;;;1.50;;
42244;SDS011;27912;51.828;5.688;2022-07-23T06:58:22;2.45;;;1.27;;
42244;SDS011;27912;51.828;5.688;2022-07-23T07:00:48;3.80;;;1.30;;
42244;SDS011;27912;51.828;5.688;2022-07-23T07:03:13;4.97;;;1.90;;
42244;SDS011;27912;51.828;5.688;2022-07-23T07:05:39;3.08;;;1.40;;
42244;SDS011;27912;51.828;5.688;2022-07-23T07:08:05;5.43;;;1.52;;
42244;SDS011;27912;51.828;5.688;2022-07-23T07:10:30;4.30;;;1.70;;
42244;SDS011;27912;51.828;5.688;2022-07-23T07:12:56;4.65;;;1.77;;
42244;SDS011;27912;51.828;5.688;2022-07-23T07:15:22;4.10;;;1.15;;
42244;SDS011;27912;51.828;5.688;2022-07-23T07:17:47;3.90;;;1.17;;
42244;SDS011;27912;51.828;5.688;2022-07-23T07:20:13;4.38;;;1.10;;
42244;SDS011;27912;51.828;5.688;2022-07-23T07:22:39;2.30;;;1.08;;
42244;SDS011;27912;51.828;5.688;2022-07-23T07:25:05;2.85;;;1.00;;
42244;SDS011;27912;51.828;5.688;2022-07-23T07:27:31;4.28;;;0.82;;
42244;SDS011;27912;51.828;5.688;2022-07-23T07:29:56;2.88;;;1.00;;
42244;SDS011;27912;51.828;5.688;2022-07-23T07:32:22;5.20;;;1.75;;
42244;SDS011;27912;51.828;5.688;2022-07-23T07:34:47;3.15;;;1.63;;
42244;SDS011;27912;51.828;5.688;2022-07-23T07:37:13;3.85;;;1.67;;
42244;SDS011;27912;51.828;5.688;2022-07-23T07:39:38;4.38;;;1.92;;
42244;SDS011;27912;51.828;5.688;2022-07-23T07:42:04;3.83;;;0.88;;
42244;SDS011;27912;51.828;5.688;2022-07-23T07:44:30;4.20;;;1.80;;
42244;SDS011;27912;51.828;5.688;2022-07-23T07:46:55;8.57;;;1.23;;
42244;SDS011;27912;51.828;5.688;2022-07-23T07:49:21;3.78;;;1.55;;
42244;SDS011;27912;51.828;5.688;2022-07-23T07:51:46;3.42;;;1.55;;
42244;SDS011;27912;51.828;5.688;2022-07-23T07:54:12;2.65;;;1.55;;
42244;SDS011;27912;51.828;5.688;2022-07-23T07:56:38;3.55;;;1.60;;
42244;SDS011;27912;51.828;5.688;2022-07-23T07:59:03;4.13;;;1.70;;
42244;SDS011;27912;51.828;5.688;2022-07-23T08:01:29;3.13;;;1.60;;
42244;SDS011;27912;51.828;5.688;2022-07-23T08:03:55;3.35;;;1.50;;
42244;SDS011;27912;51.828;5.688;2022-07-23T08:06:20;2.72;;;1.08;;
42244;SDS011;27912;51.828;5.688;2022-07-23T08:08:46;4.63;;;1.25;;
42244;SDS011;27912;51.828;5.688;2022-07-23T08:11:11;6.65;;;1.23;;
42244;SDS011;27912;51.828;5.688;2022-07-23T08:13:37;4.50;;;1.30;;
42244;SDS011;27912;51.828;5.688;2022-07-23T08:16:02;3.03;;;1.00;;
42244;SDS011;27912;51.828;5.688;2022-07-23T08:18:28;3.17;;;1.17;;
42244;SDS011;27912;51.828;5.688;2022-07-23T08:20:54;4.82;;;1.10;;
42244;SDS011;27912;51.828;5.688;2022-07-23T08:23:19;3.60;;;1.08;;
42244;SDS011;27912;51.828;5.688;2022-07-23T08:25:45;4.78;;;0.75;;
42244;SDS011;27912;51.828;5.688;2022-07-23T08:28:12;5.47;;;1.35;;
42244;SDS011;27912;51.828;5.688;2022-07-23T08:30:39;5.32;;;2.00;;
42244;SDS011;27912;51.828;5.688;2022-07-23T08:33:06;3.85;;;1.13;;
42244;SDS011;27912;51.828;5.688;2022-07-23T08:35:40;4.57;;;1.70;;
42244;SDS011;27912;51.828;5.688;2022-07-23T08:38:08;2.65;;;1.25;;
42244;SDS011;27912;51.828;5.688;2022-07-23T08:40:39;4.28;;;1.40;;
42244;SDS011;27912;51.828;5.688;2022-07-23T08:43:20;5.47;;;2.05;;
42244;SDS011;27912;51.828;5.688;2022-07-23T08:45:50;4.30;;;1.92;;
42244;SDS011;27912;51.828;5.688;2022-07-23T08:48:19;4.55;;;2.00;;
42244;SDS011;27912;51.828;5.688;2022-07-23T08:50:47;4.90;;;1.90;;
42244;SDS011;27912;51.828;5.688;2022-07-23T08:53:16;6.00;;;1.65;;
42244;SDS011;27912;51.828;5.688;2022-07-23T08:55:43;4.57;;;1.80;;
42244;SDS011;27912;51.828;5.688;2022-07-23T08:58:10;4.47;;;2.10;;
42244;SDS011;27912;51.828;5.688;2022-07-23T09:00:36;5.75;;;1.92;;
42244;SDS011;27912;51.828;5.688;2022-07-23T09:03:02;3.85;;;2.03;;
42244;SDS011;27912;51.828;5.688;2022-07-23T09:05:28;2.83;;;1.88;;
42244;SDS011;27912;51.828;5.688;2022-07-23T09:10:54;5.10;;;1.23;;
42244;SDS011;27912;51.828;5.688;2022-07-23T09:16:11;5.18;;;1.45;;
42244;SDS011;27912;51.828;5.688;2022-07-23T09:23:43;3.22;;;1.33;;
42244;SDS011;27912;51.828;5.688;2022-07-23T09:31:52;3.92;;;1.52;;
42244;SDS011;27912;51.828;5.688;2022-07-23T09:36:49;2.88;;;1.40;;
42244;SDS011;27912;51.828;5.688;2022-07-23T09:39:27;2.97;;;0.98;;
42244;SDS011;27912;51.828;5.688;2022-07-23T09:41:58;1.85;;;0.90;;
42244;SDS011;27912;51.828;5.688;2022-07-23T09:44:45;3.58;;;1.02;;
42244;SDS011;27912;51.828;5.688;2022-07-23T09:47:16;3.72;;;1.17;;
42244;SDS011;27912;51.828;5.688;2022-07-23T09:50:04;3.10;;;1.63;;
42244;SDS011;27912;51.828;5.688;2022-07-23T09:52:32;2.75;;;1.15;;
42244;SDS011;27912;51.828;5.688;2022-07-23T09:55:00;3.03;;;1.10;;
42244;SDS011;27912;51.828;5.688;2022-07-23T09:57:27;6.75;;;1.33;;
42244;SDS011;27912;51.828;5.688;2022-07-23T09:59:53;3.63;;;1.80;;
42244;SDS011;27912;51.828;5.688;2022-07-23T10:02:23;3.47;;;1.63;;
42244;SDS011;27912;51.828;5.688;2022-07-23T10:04:51;1.83;;;1.10;;
42244;SDS011;27912;51.828;5.688;2022-07-23T10:07:18;3.17;;;1.00;;
42244;SDS011;27912;51.828;5.688;2022-07-23T10:09:51;3.88;;;0.95;;
42244;SDS011;27912;51.828;5.688;2022-07-23T10:12:18;3.28;;;0.98;;
42244;SDS011;27912;51.828;5.688;2022-07-23T10:14:58;3.05;;;1.42;;
42244;SDS011;27912;51.828;5.688;2022-07-23T10:17:25;2.63;;;1.08;;
42244;SDS011;27912;51.828;5.688;2022-07-23T10:19:52;3.28;;;1.30;;
42244;SDS011;27912;51.828;5.688;2022-07-23T10:22:22;3.53;;;1.60;;
42244;SDS011;27912;51.828;5.688;2022-07-23T10:27:44;4.93;;;1.48;;
42244;SDS011;27912;51.828;5.688;2022-07-23T10:30:36;3.72;;;1.60;;
42244;SDS011;27912;51.828;5.688;2022-07-23T10:33:15;5.55;;;2.17;;
42244;SDS011;27912;51.828;5.688;2022-07-23T10:36:03;3.15;;;1.10;;
42244;SDS011;27912;51.828;5.688;2022-07-23T10:38:56;3.95;;;0.70;;
42244;SDS011;27912;51.828;5.688;2022-07-23T10:41:39;2.88;;;1.58;;
42244;SDS011;27912;51.828;5.688;2022-07-23T10:44:10;1.58;;;0.95;;
42244;SDS011;27912;51.828;5.688;2022-07-23T10:46:58;6.13;;;1.90;;
42244;SDS011;27912;51.828;5.688;2022-07-23T10:49:29;2.08;;;1.13;;
42244;SDS011;27912;51.828;5.688;2022-07-23T10:54:47;2.97;;;1.05;;
42244;SDS011;27912;51.828;5.688;2022-07-23T10:57:15;1.88;;;1.00;;
42244;SDS011;27912;51.828;5.688;2022-07-23T11:02:37;3.33;;;1.35;;
42244;SDS011;27912;51.828;5.688;2022-07-23T11:05:05;4.78;;;1.92;;
42244;SDS011;27912;51.828;5.688;2022-07-23T11:07:33;4.40;;;1.20;;
42244;SDS011;27912;51.828;5.688;2022-07-23T11:09:59;3.28;;;2.03;;
42244;SDS011;27912;51.828;5.688;2022-07-23T11:17:22;3.08;;;1.10;;
42244;SDS011;27912;51.828;5.688;2022-07-23T11:22:34;2.72;;;0.98;;
42244;SDS011;27912;51.828;5.688;2022-07-23T11:25:10;3.08;;;1.08;;
42244;SDS011;27912;51.828;5.688;2022-07-23T11:27:40;2.65;;;1.00;;
42244;SDS011;27912;51.828;5.688;2022-07-23T11:30:08;4.15;;;1.33;;
42244;SDS011;27912;51.828;5.688;2022-07-23T11:32:36;2.20;;;0.82;;
42244;SDS011;27912;51.828;5.688;2022-07-23T11:35:17;2.22;;;0.98;;
42244;SDS011;27912;51.828;5.688;2022-07-23T11:37:47;3.05;;;1.63;;
42244;SDS011;27912;51.828;5.688;2022-07-23T11:40:16;2.72;;;1.25;;
42244;SDS011;27912;51.828;5.688;2022-07-23T11:42:59;4.30;;;1.75;;
42244;SDS011;27912;51.828;5.688;2022-07-23T11:45:33;1.55;;;0.98;;
42244;SDS011;27912;51.828;5.688;2022-07-23T11:48:08;2.20;;;0.98;;
42244;SDS011;27912;51.828;5.688;2022-07-23T11:50:34;1.77;;;0.70;;
42244;SDS011;27912;51.828;5.688;2022-07-23T11:53:00;4.00;;;0.80;;
42244;SDS011;27912;51.828;5.688;2022-07-23T11:55:26;1.92;;;0.77;;
42244;SDS011;27912;51.828;5.688;2022-07-23T11:57:53;4.63;;;0.70;;
42244;SDS011;27912;51.828;5.688;2022-07-23T12:00:24;3.75;;;0.93;;
42244;SDS011;27912;51.828;5.688;2022-07-23T12:02:53;3.75;;;0.77;;
42244;SDS011;27912;51.828;5.688;2022-07-23T12:05:23;2.47;;;0.77;;
42244;SDS011;27912;51.828;5.688;2022-07-23T12:07:50;3.88;;;1.00;;
42244;SDS011;27912;51.828;5.688;2022-07-23T12:10:24;2.72;;;1.10;;
42244;SDS011;27912;51.828;5.688;2022-07-23T12:13:17;1.40;;;0.60;;
42244;SDS011;27912;51.828;5.688;2022-07-23T12:15:46;1.38;;;0.60;;
42244;SDS011;27912;51.828;5.688;2022-07-23T12:18:16;3.88;;;1.05;;
42244;SDS011;27912;51.828;5.688;2022-07-23T12:20:45;2.13;;;0.80;;
42244;SDS011;27912;51.828;5.688;2022-07-23T12:23:14;2.50;;;0.80;;
42244;SDS011;27912;51.828;5.688;2022-07-23T12:25:42;3.38;;;0.70;;
42244;SDS011;27912;51.828;5.688;2022-07-23T12:28:10;2.38;;;0.70;;
42244;SDS011;27912;51.828;5.688;2022-07-23T12:33:25;3.38;;;0.88;;
42244;SDS011;27912;51.828;5.688;2022-07-23T12:35:52;2.58;;;0.70;;
42244;SDS011;27912;51.828;5.688;2022-07-23T12:38:20;1.73;;;0.50;;
42244;SDS011;27912;51.828;5.688;2022-07-23T12:40:48;1.48;;;0.57;;
42244;SDS011;27912;51.828;5.688;2022-07-23T12:43:26;1.85;;;0.63;;
42244;SDS011;27912;51.828;5.688;2022-07-23T12:46:02;1.75;;;0.52;;
42244;SDS011;27912;51.828;5.688;2022-07-23T12:51:18;2.58;;;0.70;;
42244;SDS011;27912;51.828;5.688;2022-07-23T12:56:16;2.25;;;0.70;;
42244;SDS011;27912;51.828;5.688;2022-07-23T13:03:54;1.67;;;0.50;;
42244;SDS011;27912;51.828;5.688;2022-07-23T13:06:26;2.72;;;0.80;;
42244;SDS011;27912;51.828;5.688;2022-07-23T13:08:53;2.42;;;0.70;;
42244;SDS011;27912;51.828;5.688;2022-07-23T13:11:18;1.67;;;0.60;;
42244;SDS011;27912;51.828;5.688;2022-07-23T13:13:44;3.25;;;0.60;;
42244;SDS011;27912;51.828;5.688;2022-07-23T13:16:09;1.42;;;0.60;;
42244;SDS011;27912;51.828;5.688;2022-07-23T13:18:35;1.40;;;0.68;;
42244;SDS011;27912;51.828;5.688;2022-07-23T13:21:01;1.40;;;0.63;;
42244;SDS011;27912;51.828;5.688;2022-07-23T13:23:27;1.67;;;0.50;;
42244;SDS011;27912;51.828;5.688;2022-07-23T13:25:53;1.42;;;0.50;;
42244;SDS011;27912;51.828;5.688;2022-07-23T13:28:19;1.40;;;0.60;;
42244;SDS011;27912;51.828;5.688;2022-07-23T13:30:46;2.30;;;0.70;;
42244;SDS011;27912;51.828;5.688;2022-07-23T13:33:14;2.33;;;0.80;;
42244;SDS011;27912;51.828;5.688;2022-07-23T13:35:44;1.63;;;0.80;;
42244;SDS011;27912;51.828;5.688;2022-07-23T13:38:09;4.32;;;0.90;;
42244;SDS011;27912;51.828;5.688;2022-07-23T13:40:36;2.78;;;0.68;;
42244;SDS011;27912;51.828;5.688;2022-07-23T13:43:08;2.50;;;0.75;;
42244;SDS011;27912;51.828;5.688;2022-07-23T13:45:34;4.38;;;0.90;;
42244;SDS011;27912;51.828;5.688;2022-07-23T13:47:59;2.67;;;0.60;;
42244;SDS011;27912;51.828;5.688;2022-07-23T13:50:25;3.25;;;0.73;;
42244;SDS011;27912;51.828;5.688;2022-07-23T13:52:50;2.33;;;0.73;;
42244;SDS011;27912;51.828;5.688;2022-07-23T13:55:16;3.30;;;0.70;;
42244;SDS011;27912;51.828;5.688;2022-07-23T13:57:42;3.08;;;0.88;;
42244;SDS011;27912;51.828;5.688;2022-07-23T14:00:08;2.22;;;0.90;;
42244;SDS011;27912;51.828;5.688;2022-07-23T14:02:36;2.30;;;0.90;;
42244;SDS011;27912;51.828;5.688;2022-07-23T14:05:03;3.15;;;0.80;;
42244;SDS011;27912;51.828;5.688;2022-07-23T14:07:30;2.03;;;0.70;;
42244;SDS011;27912;51.828;5.688;2022-07-23T14:09:56;3.45;;;0.85;;
42244;SDS011;27912;51.828;5.688;2022-07-23T14:12:25;1.55;;;0.60;;
42244;SDS011;27912;51.828;5.688;2022-07-23T14:14:51;2.42;;;0.82;;
42244;SDS011;27912;51.828;5.688;2022-07-23T14:17:16;3.08;;;0.60;;
42244;SDS011;27912;51.828;5.688;2022-07-23T14:19:42;1.45;;;0.60;;
42244;SDS011;27912;51.828;5.688;2022-07-23T14:22:08;2.47;;;0.70;;
42244;SDS011;27912;51.828;5.688;2022-07-23T14:24:33;2.10;;;0.60;;
42244;SDS011;27912;51.828;5.688;2022-07-23T14:26:59;1.85;;;0.60;;
42244;SDS011;27912;51.828;5.688;2022-07-23T14:29:26;2.00;;;0.70;;
42244;SDS011;27912;51.828;5.688;2022-07-23T14:31:52;2.33;;;0.70;;
42244;SDS011;27912;51.828;5.688;2022-07-23T14:34:18;1.60;;;0.65;;
42244;SDS011;27912;51.828;5.688;2022-07-23T14:36:43;1.95;;;0.70;;
42244;SDS011;27912;51.828;5.688;2022-07-23T14:39:09;2.00;;;0.70;;
42244;SDS011;27912;51.828;5.688;2022-07-23T14:41:36;1.90;;;0.70;;
42244;SDS011;27912;51.828;5.688;2022-07-23T14:44:02;2.17;;;0.60;;
42244;SDS011;27912;51.828;5.688;2022-07-23T14:46:28;1.42;;;0.60;;
42244;SDS011;27912;51.828;5.688;2022-07-23T14:48:54;1.90;;;0.75;;
42244;SDS011;27912;51.828;5.688;2022-07-23T14:51:20;1.70;;;0.70;;
42244;SDS011;27912;51.828;5.688;2022-07-23T14:53:46;2.42;;;0.93;;
42244;SDS011;27912;51.828;5.688;2022-07-23T14:56:11;2.88;;;0.63;;
42244;SDS011;27912;51.828;5.688;2022-07-23T14:58:38;1.63;;;0.70;;
42244;SDS011;27912;51.828;5.688;2022-07-23T15:01:04;2.33;;;0.65;;
42244;SDS011;27912;51.828;5.688;2022-07-23T15:03:30;2.42;;;0.73;;
42244;SDS011;27912;51.828;5.688;2022-07-23T15:05:55;2.25;;;0.60;;
42244;SDS011;27912;51.828;5.688;2022-07-23T15:08:21;2.30;;;0.50;;
42244;SDS011;27912;51.828;5.688;2022-07-23T15:10:46;1.73;;;0.68;;
42244;SDS011;27912;51.828;5.688;2022-07-23T15:13:12;2.17;;;0.73;;
42244;SDS011;27912;51.828;5.688;2022-07-23T15:15:38;2.10;;;0.60;;
42244;SDS011;27912;51.828;5.688;2022-07-23T15:18:03;1.20;;;0.60;;
42244;SDS011;27912;51.828;5.688;2022-07-23T15:20:29;2.58;;;0.70;;
42244;SDS011;27912;51.828;5.688;2022-07-23T15:22:56;1.63;;;0.80;;
42244;SDS011;27912;51.828;5.688;2022-07-23T15:25:21;1.42;;;0.63;;
42244;SDS011;27912;51.828;5.688;2022-07-23T15:27:47;1.13;;;0.57;;
42244;SDS011;27912;51.828;5.688;2022-07-23T15:30:12;1.70;;;0.40;;
42244;SDS011;27912;51.828;5.688;2022-07-23T15:32:38;3.67;;;0.60;;
42244;SDS011;27912;51.828;5.688;2022-07-23T15:35:04;1.83;;;0.60;;
42244;SDS011;27912;51.828;5.688;2022-07-23T15:37:31;1.65;;;0.47;;